sensor_id;sensor_type;location;lat;lon;timestamp;P1;durP1;ratioP1;P2;durP2;ratioP2
66429;SDS011;53242;51.694;10.006;2023-07-20T00:00:41;11.35;;;5.20;;
66429;SDS011;53242;51.694;10.006;2023-07-20T00:03:10;9.40;;;5.22;;
66429;SDS011;53242;51.694;10.006;2023-07-20T00:05:41;9.38;;;5.45;;
66429;SDS011;53242;51.694;10.006;2023-07-20T00:08:03;9.27;;;6.13;;
66429;SDS011;53242;51.694;10.006;2023-07-20T00:10:26;10.90;;;6.35;;
66429;SDS011;53242;51.694;10.006;2023-07-20T00:12:48;13.55;;;6.43;;
66429;SDS011;53242;51.694;10.006;2023-07-20T00:15:10;12.38;;;5.85;;
66429;SDS011;53242;51.694;10.006;2023-07-20T00:17:33;13.30;;;5.80;;
66429;SDS011;53242;51.694;10.006;2023-07-20T00:19:55;10.88;;;6.40;;
66429;SDS011;53242;51.694;10.006;2023-07-20T00:22:18;12.10;;;6.00;;
66429;SDS011;53242;51.694;10.006;2023-07-20T00:24:40;13.18;;;6.20;;
66429;SDS011;53242;51.694;10.006;2023-07-20T00:27:02;14.45;;;6.32;;
66429;SDS011;53242;51.694;10.006;2023-07-20T00:29:26;17.38;;;6.68;;
66429;SDS011;53242;51.694;10.006;2023-07-20T00:31:48;14.30;;;6.35;;
66429;SDS011;53242;51.694;10.006;2023-07-20T00:34:11;17.90;;;7.30;;
66429;SDS011;53242;51.694;10.006;2023-07-20T00:36:33;17.80;;;7.22;;
66429;SDS011;53242;51.694;10.006;2023-07-20T00:41:20;13.27;;;7.00;;
66429;SDS011;53242;51.694;10.006;2023-07-20T00:43:42;16.02;;;7.90;;
66429;SDS011;53242;51.694;10.006;2023-07-20T00:46:05;21.65;;;8.02;;
66429;SDS011;53242;51.694;10.006;2023-07-20T00:48:28;15.93;;;7.97;;
66429;SDS011;53242;51.694;10.006;2023-07-20T00:50:51;15.75;;;7.80;;
66429;SDS011;53242;51.694;10.006;2023-07-20T00:53:14;15.82;;;7.55;;
66429;SDS011;53242;51.694;10.006;2023-07-20T00:55:37;20.00;;;7.30;;
66429;SDS011;53242;51.694;10.006;2023-07-20T00:57:59;13.80;;;7.18;;
66429;SDS011;53242;51.694;10.006;2023-07-20T01:00:22;14.00;;;7.65;;
66429;SDS011;53242;51.694;10.006;2023-07-20T01:02:46;14.90;;;8.02;;
66429;SDS011;53242;51.694;10.006;2023-07-20T01:05:09;15.07;;;8.32;;
66429;SDS011;53242;51.694;10.006;2023-07-20T01:07:35;19.05;;;8.98;;
66429;SDS011;53242;51.694;10.006;2023-07-20T01:10:03;18.08;;;8.75;;
66429;SDS011;53242;51.694;10.006;2023-07-20T01:12:39;15.02;;;8.00;;
66429;SDS011;53242;51.694;10.006;2023-07-20T01:15:09;15.55;;;8.20;;
66429;SDS011;53242;51.694;10.006;2023-07-20T01:17:33;13.27;;;7.15;;
66429;SDS011;53242;51.694;10.006;2023-07-20T01:19:55;15.45;;;8.18;;
66429;SDS011;53242;51.694;10.006;2023-07-20T01:22:28;13.82;;;7.28;;
66429;SDS011;53242;51.694;10.006;2023-07-20T01:32:34;8.40;;;3.80;;
66429;SDS011;53242;51.694;10.006;2023-07-20T01:34:58;7.30;;;3.15;;
66429;SDS011;53242;51.694;10.006;2023-07-20T01:37:23;6.47;;;3.35;;
66429;SDS011;53242;51.694;10.006;2023-07-20T01:39:49;7.03;;;3.17;;
66429;SDS011;53242;51.694;10.006;2023-07-20T01:42:13;7.70;;;3.40;;
66429;SDS011;53242;51.694;10.006;2023-07-20T01:44:36;7.15;;;2.78;;
66429;SDS011;53242;51.694;10.006;2023-07-20T01:46:59;5.00;;;2.90;;
66429;SDS011;53242;51.694;10.006;2023-07-20T01:49:21;5.00;;;2.70;;
66429;SDS011;53242;51.694;10.006;2023-07-20T01:51:44;4.60;;;2.67;;
66429;SDS011;53242;51.694;10.006;2023-07-20T01:54:06;6.65;;;2.80;;
66429;SDS011;53242;51.694;10.006;2023-07-20T01:56:29;5.05;;;2.70;;
66429;SDS011;53242;51.694;10.006;2023-07-20T01:58:51;6.38;;;2.90;;
66429;SDS011;53242;51.694;10.006;2023-07-20T02:01:14;5.47;;;2.85;;
66429;SDS011;53242;51.694;10.006;2023-07-20T02:03:36;4.93;;;2.58;;
66429;SDS011;53242;51.694;10.006;2023-07-20T02:05:58;6.68;;;2.60;;
66429;SDS011;53242;51.694;10.006;2023-07-20T02:08:21;5.05;;;2.58;;
66429;SDS011;53242;51.694;10.006;2023-07-20T02:10:47;5.22;;;2.50;;
66429;SDS011;53242;51.694;10.006;2023-07-20T02:13:10;5.32;;;2.00;;
66429;SDS011;53242;51.694;10.006;2023-07-20T02:15:32;4.72;;;2.40;;
66429;SDS011;53242;51.694;10.006;2023-07-20T02:17:55;4.63;;;2.25;;
66429;SDS011;53242;51.694;10.006;2023-07-20T02:20:17;4.13;;;2.08;;
66429;SDS011;53242;51.694;10.006;2023-07-20T02:22:41;4.43;;;2.47;;
66429;SDS011;53242;51.694;10.006;2023-07-20T02:25:04;6.07;;;2.60;;
66429;SDS011;53242;51.694;10.006;2023-07-20T02:27:27;7.80;;;3.50;;
66429;SDS011;53242;51.694;10.006;2023-07-20T02:29:50;9.32;;;3.20;;
66429;SDS011;53242;51.694;10.006;2023-07-20T02:32:12;7.28;;;3.47;;
66429;SDS011;53242;51.694;10.006;2023-07-20T02:34:35;7.45;;;2.63;;
66429;SDS011;53242;51.694;10.006;2023-07-20T02:36:57;5.72;;;3.05;;
66429;SDS011;53242;51.694;10.006;2023-07-20T02:39:23;7.63;;;3.10;;
66429;SDS011;53242;51.694;10.006;2023-07-20T02:41:45;6.90;;;3.28;;
66429;SDS011;53242;51.694;10.006;2023-07-20T02:44:08;9.00;;;3.72;;
66429;SDS011;53242;51.694;10.006;2023-07-20T02:46:30;7.28;;;3.53;;
66429;SDS011;53242;51.694;10.006;2023-07-20T02:48:54;7.15;;;3.15;;
66429;SDS011;53242;51.694;10.006;2023-07-20T02:51:16;8.05;;;3.80;;
66429;SDS011;53242;51.694;10.006;2023-07-20T02:53:39;7.13;;;3.80;;
66429;SDS011;53242;51.694;10.006;2023-07-20T02:56:01;9.75;;;3.80;;
66429;SDS011;53242;51.694;10.006;2023-07-20T02:58:24;7.72;;;3.97;;
66429;SDS011;53242;51.694;10.006;2023-07-20T03:00:46;8.27;;;4.38;;
66429;SDS011;53242;51.694;10.006;2023-07-20T03:03:09;7.35;;;4.05;;
66429;SDS011;53242;51.694;10.006;2023-07-20T03:05:31;7.38;;;4.00;;
66429;SDS011;53242;51.694;10.006;2023-07-20T03:07:54;8.43;;;4.40;;
66429;SDS011;53242;51.694;10.006;2023-07-20T03:10:17;7.65;;;4.10;;
66429;SDS011;53242;51.694;10.006;2023-07-20T03:12:40;9.65;;;4.30;;
66429;SDS011;53242;51.694;10.006;2023-07-20T03:15:03;8.45;;;4.43;;
66429;SDS011;53242;51.694;10.006;2023-07-20T03:17:26;8.30;;;4.03;;
66429;SDS011;53242;51.694;10.006;2023-07-20T03:19:48;6.93;;;3.83;;
66429;SDS011;53242;51.694;10.006;2023-07-20T03:22:10;12.23;;;3.92;;
66429;SDS011;53242;51.694;10.006;2023-07-20T03:24:34;6.55;;;3.45;;
66429;SDS011;53242;51.694;10.006;2023-07-20T03:26:56;6.50;;;3.92;;
66429;SDS011;53242;51.694;10.006;2023-07-20T03:29:19;6.47;;;3.55;;
66429;SDS011;53242;51.694;10.006;2023-07-20T03:31:42;6.72;;;3.88;;
66429;SDS011;53242;51.694;10.006;2023-07-20T03:34:05;7.93;;;4.22;;
66429;SDS011;53242;51.694;10.006;2023-07-20T03:36:28;6.70;;;4.00;;
66429;SDS011;53242;51.694;10.006;2023-07-20T03:38:50;8.05;;;4.00;;
66429;SDS011;53242;51.694;10.006;2023-07-20T03:41:13;8.88;;;4.35;;
66429;SDS011;53242;51.694;10.006;2023-07-20T03:43:37;8.30;;;4.47;;
66429;SDS011;53242;51.694;10.006;2023-07-20T03:46:00;8.43;;;4.18;;
66429;SDS011;53242;51.694;10.006;2023-07-20T03:48:23;9.90;;;4.10;;
66429;SDS011;53242;51.694;10.006;2023-07-20T03:50:46;9.70;;;3.97;;
66429;SDS011;53242;51.694;10.006;2023-07-20T03:53:09;8.63;;;4.63;;
66429;SDS011;53242;51.694;10.006;2023-07-20T03:55:32;8.70;;;4.05;;
66429;SDS011;53242;51.694;10.006;2023-07-20T03:57:54;8.65;;;4.68;;
66429;SDS011;53242;51.694;10.006;2023-07-20T04:00:17;8.88;;;4.22;;
66429;SDS011;53242;51.694;10.006;2023-07-20T04:02:40;8.68;;;4.45;;
66429;SDS011;53242;51.694;10.006;2023-07-20T04:05:03;9.05;;;4.53;;
66429;SDS011;53242;51.694;10.006;2023-07-20T04:07:25;7.75;;;3.90;;
66429;SDS011;53242;51.694;10.006;2023-07-20T04:09:48;7.63;;;3.75;;
66429;SDS011;53242;51.694;10.006;2023-07-20T04:12:10;9.13;;;3.85;;
66429;SDS011;53242;51.694;10.006;2023-07-20T04:14:33;8.52;;;4.53;;
66429;SDS011;53242;51.694;10.006;2023-07-20T04:16:55;9.55;;;4.55;;
66429;SDS011;53242;51.694;10.006;2023-07-20T04:19:17;8.32;;;4.30;;
66429;SDS011;53242;51.694;10.006;2023-07-20T04:21:40;7.82;;;3.95;;
66429;SDS011;53242;51.694;10.006;2023-07-20T04:24:03;7.95;;;3.92;;
66429;SDS011;53242;51.694;10.006;2023-07-20T04:26:27;9.55;;;4.75;;
66429;SDS011;53242;51.694;10.006;2023-07-20T04:28:49;10.25;;;4.15;;
66429;SDS011;53242;51.694;10.006;2023-07-20T04:31:25;7.28;;;3.60;;
66429;SDS011;53242;51.694;10.006;2023-07-20T04:33:47;9.52;;;4.90;;
66429;SDS011;53242;51.694;10.006;2023-07-20T04:36:10;9.80;;;4.63;;
66429;SDS011;53242;51.694;10.006;2023-07-20T04:38:32;7.78;;;4.45;;
66429;SDS011;53242;51.694;10.006;2023-07-20T04:41:13;8.48;;;4.45;;
66429;SDS011;53242;51.694;10.006;2023-07-20T04:43:42;8.57;;;4.13;;
66429;SDS011;53242;51.694;10.006;2023-07-20T04:46:06;7.57;;;4.65;;
66429;SDS011;53242;51.694;10.006;2023-07-20T04:48:30;9.90;;;4.80;;
66429;SDS011;53242;51.694;10.006;2023-07-20T04:50:53;8.45;;;4.60;;
66429;SDS011;53242;51.694;10.006;2023-07-20T04:53:16;9.30;;;4.30;;
66429;SDS011;53242;51.694;10.006;2023-07-20T04:55:39;9.32;;;4.60;;
66429;SDS011;53242;51.694;10.006;2023-07-20T04:58:03;8.77;;;4.20;;
66429;SDS011;53242;51.694;10.006;2023-07-20T05:00:27;8.65;;;4.72;;
66429;SDS011;53242;51.694;10.006;2023-07-20T05:02:50;11.90;;;4.70;;
66429;SDS011;53242;51.694;10.006;2023-07-20T05:05:12;8.75;;;4.70;;
66429;SDS011;53242;51.694;10.006;2023-07-20T05:07:35;9.98;;;4.88;;
66429;SDS011;53242;51.694;10.006;2023-07-20T05:09:57;9.32;;;4.68;;
66429;SDS011;53242;51.694;10.006;2023-07-20T05:12:20;9.02;;;4.60;;
66429;SDS011;53242;51.694;10.006;2023-07-20T05:14:42;8.70;;;4.18;;
66429;SDS011;53242;51.694;10.006;2023-07-20T05:17:05;8.25;;;4.65;;
66429;SDS011;53242;51.694;10.006;2023-07-20T05:19:27;7.32;;;4.18;;
66429;SDS011;53242;51.694;10.006;2023-07-20T05:21:50;9.65;;;4.55;;
66429;SDS011;53242;51.694;10.006;2023-07-20T05:24:12;9.68;;;4.13;;
66429;SDS011;53242;51.694;10.006;2023-07-20T05:26:34;8.32;;;4.20;;
66429;SDS011;53242;51.694;10.006;2023-07-20T05:28:57;9.73;;;4.30;;
66429;SDS011;53242;51.694;10.006;2023-07-20T05:31:19;10.02;;;4.32;;
66429;SDS011;53242;51.694;10.006;2023-07-20T05:33:42;10.35;;;5.10;;
66429;SDS011;53242;51.694;10.006;2023-07-20T05:36:04;9.27;;;4.60;;
66429;SDS011;53242;51.694;10.006;2023-07-20T05:38:26;11.85;;;4.88;;
66429;SDS011;53242;51.694;10.006;2023-07-20T05:40:49;11.88;;;4.38;;
66429;SDS011;53242;51.694;10.006;2023-07-20T05:43:12;10.57;;;5.38;;
66429;SDS011;53242;51.694;10.006;2023-07-20T05:45:34;9.90;;;5.38;;
66429;SDS011;53242;51.694;10.006;2023-07-20T05:47:57;14.27;;;6.43;;
66429;SDS011;53242;51.694;10.006;2023-07-20T05:50:19;20.90;;;6.40;;
66429;SDS011;53242;51.694;10.006;2023-07-20T05:52:41;16.05;;;6.28;;
66429;SDS011;53242;51.694;10.006;2023-07-20T05:55:04;13.82;;;6.85;;
66429;SDS011;53242;51.694;10.006;2023-07-20T05:57:27;13.27;;;6.72;;
66429;SDS011;53242;51.694;10.006;2023-07-20T05:59:49;13.90;;;5.75;;
66429;SDS011;53242;51.694;10.006;2023-07-20T06:02:12;14.57;;;7.07;;
66429;SDS011;53242;51.694;10.006;2023-07-20T06:04:34;16.25;;;7.60;;
66429;SDS011;53242;51.694;10.006;2023-07-20T06:06:57;15.50;;;6.55;;
66429;SDS011;53242;51.694;10.006;2023-07-20T06:09:19;13.48;;;7.00;;
66429;SDS011;53242;51.694;10.006;2023-07-20T06:11:42;13.95;;;6.72;;
66429;SDS011;53242;51.694;10.006;2023-07-20T06:14:04;15.82;;;7.78;;
66429;SDS011;53242;51.694;10.006;2023-07-20T06:16:27;12.70;;;6.50;;
66429;SDS011;53242;51.694;10.006;2023-07-20T06:18:49;13.52;;;6.25;;
66429;SDS011;53242;51.694;10.006;2023-07-20T06:21:12;12.65;;;6.50;;
66429;SDS011;53242;51.694;10.006;2023-07-20T06:23:34;13.60;;;6.57;;
66429;SDS011;53242;51.694;10.006;2023-07-20T06:25:57;12.85;;;7.15;;
66429;SDS011;53242;51.694;10.006;2023-07-20T06:28:19;16.88;;;7.32;;
66429;SDS011;53242;51.694;10.006;2023-07-20T06:30:41;16.40;;;7.43;;
66429;SDS011;53242;51.694;10.006;2023-07-20T06:33:04;14.43;;;7.15;;
66429;SDS011;53242;51.694;10.006;2023-07-20T06:35:26;12.93;;;7.40;;
66429;SDS011;53242;51.694;10.006;2023-07-20T06:37:49;13.45;;;7.10;;
66429;SDS011;53242;51.694;10.006;2023-07-20T06:40:11;18.67;;;8.15;;
66429;SDS011;53242;51.694;10.006;2023-07-20T06:42:34;16.30;;;8.18;;
66429;SDS011;53242;51.694;10.006;2023-07-20T06:44:57;19.67;;;8.30;;
66429;SDS011;53242;51.694;10.006;2023-07-20T06:47:19;18.10;;;8.13;;
66429;SDS011;53242;51.694;10.006;2023-07-20T06:49:42;17.45;;;8.40;;
66429;SDS011;53242;51.694;10.006;2023-07-20T06:52:04;15.02;;;7.45;;
66429;SDS011;53242;51.694;10.006;2023-07-20T06:54:27;8.02;;;3.70;;
66429;SDS011;53242;51.694;10.006;2023-07-20T06:56:50;8.55;;;4.32;;
66429;SDS011;53242;51.694;10.006;2023-07-20T06:59:12;11.13;;;4.70;;
66429;SDS011;53242;51.694;10.006;2023-07-20T07:01:35;8.80;;;4.18;;
66429;SDS011;53242;51.694;10.006;2023-07-20T07:03:57;6.45;;;3.25;;
66429;SDS011;53242;51.694;10.006;2023-07-20T07:06:20;5.63;;;2.30;;
66429;SDS011;53242;51.694;10.006;2023-07-20T07:08:43;5.20;;;2.30;;
66429;SDS011;53242;51.694;10.006;2023-07-20T07:11:06;3.10;;;1.42;;
66429;SDS011;53242;51.694;10.006;2023-07-20T07:13:29;3.17;;;1.50;;
66429;SDS011;53242;51.694;10.006;2023-07-20T07:15:52;4.15;;;1.40;;
66429;SDS011;53242;51.694;10.006;2023-07-20T07:18:14;1.50;;;1.10;;
66429;SDS011;53242;51.694;10.006;2023-07-20T07:20:37;1.13;;;1.02;;
66429;SDS011;53242;51.694;10.006;2023-07-20T07:22:59;3.70;;;1.45;;
66429;SDS011;53242;51.694;10.006;2023-07-20T07:25:22;2.72;;;1.27;;
66429;SDS011;53242;51.694;10.006;2023-07-20T07:27:45;2.92;;;1.50;;
66429;SDS011;53242;51.694;10.006;2023-07-20T07:30:07;3.92;;;1.63;;
66429;SDS011;53242;51.694;10.006;2023-07-20T07:32:30;3.03;;;1.58;;
66429;SDS011;53242;51.694;10.006;2023-07-20T07:34:53;3.03;;;1.52;;
66429;SDS011;53242;51.694;10.006;2023-07-20T07:37:15;4.10;;;1.60;;
66429;SDS011;53242;51.694;10.006;2023-07-20T07:39:39;4.22;;;1.73;;
66429;SDS011;53242;51.694;10.006;2023-07-20T07:42:01;4.80;;;1.80;;
66429;SDS011;53242;51.694;10.006;2023-07-20T07:44:24;3.55;;;1.98;;
66429;SDS011;53242;51.694;10.006;2023-07-20T07:46:46;3.28;;;1.90;;
66429;SDS011;53242;51.694;10.006;2023-07-20T07:49:09;3.13;;;1.75;;
66429;SDS011;53242;51.694;10.006;2023-07-20T07:51:31;3.05;;;1.90;;
66429;SDS011;53242;51.694;10.006;2023-07-20T07:53:54;3.40;;;1.90;;
66429;SDS011;53242;51.694;10.006;2023-07-20T07:56:16;4.97;;;1.90;;
66429;SDS011;53242;51.694;10.006;2023-07-20T07:58:39;4.38;;;2.25;;
66429;SDS011;53242;51.694;10.006;2023-07-20T08:01:02;3.42;;;2.00;;
66429;SDS011;53242;51.694;10.006;2023-07-20T08:03:25;5.38;;;2.15;;
66429;SDS011;53242;51.694;10.006;2023-07-20T08:05:48;3.85;;;2.03;;
66429;SDS011;53242;51.694;10.006;2023-07-20T08:08:10;4.70;;;2.20;;
66429;SDS011;53242;51.694;10.006;2023-07-20T08:10:33;6.15;;;2.30;;
66429;SDS011;53242;51.694;10.006;2023-07-20T08:12:55;3.90;;;2.17;;
66429;SDS011;53242;51.694;10.006;2023-07-20T08:15:18;3.88;;;2.33;;
66429;SDS011;53242;51.694;10.006;2023-07-20T08:17:41;7.82;;;2.38;;
66429;SDS011;53242;51.694;10.006;2023-07-20T08:20:04;3.95;;;2.00;;
66429;SDS011;53242;51.694;10.006;2023-07-20T08:22:28;5.68;;;2.05;;
66429;SDS011;53242;51.694;10.006;2023-07-20T08:24:50;4.13;;;2.13;;
66429;SDS011;53242;51.694;10.006;2023-07-20T08:27:13;4.30;;;2.00;;
66429;SDS011;53242;51.694;10.006;2023-07-20T08:29:35;2.47;;;1.70;;
66429;SDS011;53242;51.694;10.006;2023-07-20T08:31:58;3.92;;;1.50;;
66429;SDS011;53242;51.694;10.006;2023-07-20T08:34:21;4.90;;;1.70;;
66429;SDS011;53242;51.694;10.006;2023-07-20T08:36:43;4.35;;;2.10;;
66429;SDS011;53242;51.694;10.006;2023-07-20T08:39:06;4.13;;;2.08;;
66429;SDS011;53242;51.694;10.006;2023-07-20T08:41:30;4.93;;;1.90;;
66429;SDS011;53242;51.694;10.006;2023-07-20T08:43:53;3.50;;;2.00;;
66429;SDS011;53242;51.694;10.006;2023-07-20T08:46:17;4.25;;;2.20;;
66429;SDS011;53242;51.694;10.006;2023-07-20T08:48:40;3.70;;;2.13;;
66429;SDS011;53242;51.694;10.006;2023-07-20T08:51:04;4.45;;;2.60;;
66429;SDS011;53242;51.694;10.006;2023-07-20T08:53:27;4.13;;;2.47;;
66429;SDS011;53242;51.694;10.006;2023-07-20T08:55:50;4.88;;;2.45;;
66429;SDS011;53242;51.694;10.006;2023-07-20T08:58:14;4.95;;;2.78;;
66429;SDS011;53242;51.694;10.006;2023-07-20T09:00:37;4.63;;;2.38;;
66429;SDS011;53242;51.694;10.006;2023-07-20T09:03:00;5.13;;;2.45;;
66429;SDS011;53242;51.694;10.006;2023-07-20T09:05:24;4.50;;;2.95;;
66429;SDS011;53242;51.694;10.006;2023-07-20T09:07:47;4.70;;;2.60;;
66429;SDS011;53242;51.694;10.006;2023-07-20T09:10:09;4.18;;;2.55;;
66429;SDS011;53242;51.694;10.006;2023-07-20T09:12:39;3.80;;;2.22;;
66429;SDS011;53242;51.694;10.006;2023-07-20T09:15:02;4.38;;;2.50;;
66429;SDS011;53242;51.694;10.006;2023-07-20T09:17:26;4.30;;;2.50;;
66429;SDS011;53242;51.694;10.006;2023-07-20T09:19:49;5.05;;;2.40;;
66429;SDS011;53242;51.694;10.006;2023-07-20T09:22:11;4.15;;;2.35;;
66429;SDS011;53242;51.694;10.006;2023-07-20T09:24:34;2.47;;;1.67;;
66429;SDS011;53242;51.694;10.006;2023-07-20T09:26:56;2.80;;;1.73;;
66429;SDS011;53242;51.694;10.006;2023-07-20T09:29:19;2.40;;;1.80;;
66429;SDS011;53242;51.694;10.006;2023-07-20T09:31:42;3.67;;;2.03;;
66429;SDS011;53242;51.694;10.006;2023-07-20T09:34:04;2.75;;;1.20;;
66429;SDS011;53242;51.694;10.006;2023-07-20T09:36:27;2.10;;;1.58;;
66429;SDS011;53242;51.694;10.006;2023-07-20T09:38:50;3.35;;;1.67;;
66429;SDS011;53242;51.694;10.006;2023-07-20T09:41:13;2.35;;;1.50;;
66429;SDS011;53242;51.694;10.006;2023-07-20T09:43:37;1.95;;;1.52;;
66429;SDS011;53242;51.694;10.006;2023-07-20T09:46:00;1.63;;;1.02;;
66429;SDS011;53242;51.694;10.006;2023-07-20T09:48:23;2.20;;;1.30;;
66429;SDS011;53242;51.694;10.006;2023-07-20T09:50:50;1.42;;;1.17;;
66429;SDS011;53242;51.694;10.006;2023-07-20T09:53:13;1.20;;;1.10;;
66429;SDS011;53242;51.694;10.006;2023-07-20T09:55:37;1.20;;;1.10;;
66429;SDS011;53242;51.694;10.006;2023-07-20T09:58:00;1.90;;;1.40;;
66429;SDS011;53242;51.694;10.006;2023-07-20T10:00:23;3.05;;;1.33;;
66429;SDS011;53242;51.694;10.006;2023-07-20T10:02:46;1.80;;;1.08;;
66429;SDS011;53242;51.694;10.006;2023-07-20T10:05:08;1.80;;;1.20;;
66429;SDS011;53242;51.694;10.006;2023-07-20T10:07:32;1.70;;;1.30;;
66429;SDS011;53242;51.694;10.006;2023-07-20T10:09:59;1.83;;;1.30;;
66429;SDS011;53242;51.694;10.006;2023-07-20T10:12:24;1.95;;;1.40;;
66429;SDS011;53242;51.694;10.006;2023-07-20T10:14:54;2.15;;;1.17;;
66429;SDS011;53242;51.694;10.006;2023-07-20T10:17:26;1.65;;;1.23;;
66429;SDS011;53242;51.694;10.006;2023-07-20T10:19:49;1.48;;;1.25;;
66429;SDS011;53242;51.694;10.006;2023-07-20T10:22:14;1.50;;;1.23;;
66429;SDS011;53242;51.694;10.006;2023-07-20T10:24:39;2.13;;;1.25;;
66429;SDS011;53242;51.694;10.006;2023-07-20T10:27:08;1.92;;;1.33;;
66429;SDS011;53242;51.694;10.006;2023-07-20T10:29:30;1.50;;;1.30;;
66429;SDS011;53242;51.694;10.006;2023-07-20T10:31:54;2.00;;;1.30;;
66429;SDS011;53242;51.694;10.006;2023-07-20T10:34:17;1.40;;;1.27;;
66429;SDS011;53242;51.694;10.006;2023-07-20T10:36:43;1.88;;;1.23;;
66429;SDS011;53242;51.694;10.006;2023-07-20T10:39:23;1.05;;;0.95;;
66429;SDS011;53242;51.694;10.006;2023-07-20T10:41:47;1.58;;;1.40;;
66429;SDS011;53242;51.694;10.006;2023-07-20T10:44:09;1.90;;;1.20;;
66429;SDS011;53242;51.694;10.006;2023-07-20T10:51:26;1.08;;;0.82;;
66429;SDS011;53242;51.694;10.006;2023-07-20T10:53:49;1.25;;;1.15;;
66429;SDS011;53242;51.694;10.006;2023-07-20T10:56:12;1.92;;;1.10;;
66429;SDS011;53242;51.694;10.006;2023-07-20T11:01:02;3.25;;;1.30;;
66429;SDS011;53242;51.694;10.006;2023-07-20T11:03:29;1.13;;;1.05;;
66429;SDS011;53242;51.694;10.006;2023-07-20T11:05:53;1.67;;;1.20;;
66429;SDS011;53242;51.694;10.006;2023-07-20T11:08:37;2.25;;;1.27;;
66429;SDS011;53242;51.694;10.006;2023-07-20T11:13:55;1.95;;;1.15;;
66429;SDS011;53242;51.694;10.006;2023-07-20T11:16:20;1.73;;;1.20;;
66429;SDS011;53242;51.694;10.006;2023-07-20T11:18:57;2.42;;;1.58;;
66429;SDS011;53242;51.694;10.006;2023-07-20T11:21:20;1.55;;;1.30;;
66429;SDS011;53242;51.694;10.006;2023-07-20T11:23:43;1.20;;;1.10;;
66429;SDS011;53242;51.694;10.006;2023-07-20T11:26:05;4.93;;;2.30;;
66429;SDS011;53242;51.694;10.006;2023-07-20T11:28:29;2.75;;;1.20;;
66429;SDS011;53242;51.694;10.006;2023-07-20T11:30:52;1.38;;;1.20;;
66429;SDS011;53242;51.694;10.006;2023-07-20T11:33:15;3.08;;;1.30;;
66429;SDS011;53242;51.694;10.006;2023-07-20T11:35:44;1.63;;;1.20;;
66429;SDS011;53242;51.694;10.006;2023-07-20T11:38:08;3.20;;;1.10;;
66429;SDS011;53242;51.694;10.006;2023-07-20T11:40:31;1.65;;;1.15;;
66429;SDS011;53242;51.694;10.006;2023-07-20T11:42:53;1.15;;;1.00;;
66429;SDS011;53242;51.694;10.006;2023-07-20T11:45:16;1.20;;;1.10;;
66429;SDS011;53242;51.694;10.006;2023-07-20T11:47:40;2.13;;;1.10;;
66429;SDS011;53242;51.694;10.006;2023-07-20T11:50:04;2.05;;;1.20;;
66429;SDS011;53242;51.694;10.006;2023-07-20T11:52:26;2.15;;;1.30;;
66429;SDS011;53242;51.694;10.006;2023-07-20T11:54:50;1.55;;;1.25;;
66429;SDS011;53242;51.694;10.006;2023-07-20T11:57:16;1.50;;;1.40;;
66429;SDS011;53242;51.694;10.006;2023-07-20T11:59:39;1.83;;;1.38;;
66429;SDS011;53242;51.694;10.006;2023-07-20T12:02:14;2.00;;;1.20;;
66429;SDS011;53242;51.694;10.006;2023-07-20T12:04:37;1.63;;;0.90;;
66429;SDS011;53242;51.694;10.006;2023-07-20T12:07:00;2.47;;;1.48;;
66429;SDS011;53242;51.694;10.006;2023-07-20T12:09:23;1.40;;;1.30;;
66429;SDS011;53242;51.694;10.006;2023-07-20T12:11:48;2.15;;;1.20;;
66429;SDS011;53242;51.694;10.006;2023-07-20T12:14:11;1.55;;;1.40;;
66429;SDS011;53242;51.694;10.006;2023-07-20T12:16:34;1.38;;;1.27;;
66429;SDS011;53242;51.694;10.006;2023-07-20T12:19:01;2.03;;;1.10;;
66429;SDS011;53242;51.694;10.006;2023-07-20T12:21:27;2.65;;;1.50;;
66429;SDS011;53242;51.694;10.006;2023-07-20T12:23:50;1.60;;;1.23;;
66429;SDS011;53242;51.694;10.006;2023-07-20T12:26:13;1.88;;;1.30;;
66429;SDS011;53242;51.694;10.006;2023-07-20T12:28:38;3.10;;;1.20;;
66429;SDS011;53242;51.694;10.006;2023-07-20T12:31:04;1.50;;;1.25;;
66429;SDS011;53242;51.694;10.006;2023-07-20T12:33:26;1.77;;;1.20;;
66429;SDS011;53242;51.694;10.006;2023-07-20T12:35:49;1.27;;;1.10;;
66429;SDS011;53242;51.694;10.006;2023-07-20T12:38:11;2.13;;;1.20;;
66429;SDS011;53242;51.694;10.006;2023-07-20T12:40:34;0.95;;;0.85;;
66429;SDS011;53242;51.694;10.006;2023-07-20T12:42:57;1.75;;;1.20;;
66429;SDS011;53242;51.694;10.006;2023-07-20T12:45:19;1.90;;;1.05;;
66429;SDS011;53242;51.694;10.006;2023-07-20T12:47:42;2.03;;;1.10;;
66429;SDS011;53242;51.694;10.006;2023-07-20T12:50:06;1.90;;;1.30;;
66429;SDS011;53242;51.694;10.006;2023-07-20T12:52:28;1.17;;;0.95;;
66429;SDS011;53242;51.694;10.006;2023-07-20T12:54:51;1.60;;;0.90;;
66429;SDS011;53242;51.694;10.006;2023-07-20T12:57:14;1.42;;;1.00;;
66429;SDS011;53242;51.694;10.006;2023-07-20T12:59:36;1.45;;;1.00;;
66429;SDS011;53242;51.694;10.006;2023-07-20T13:01:59;1.45;;;1.15;;
66429;SDS011;53242;51.694;10.006;2023-07-20T13:04:21;0.95;;;0.95;;
66429;SDS011;53242;51.694;10.006;2023-07-20T13:06:43;2.15;;;1.20;;
66429;SDS011;53242;51.694;10.006;2023-07-20T13:09:06;1.70;;;1.10;;
66429;SDS011;53242;51.694;10.006;2023-07-20T13:11:28;1.85;;;1.00;;
66429;SDS011;53242;51.694;10.006;2023-07-20T13:13:51;1.25;;;1.02;;
66429;SDS011;53242;51.694;10.006;2023-07-20T13:16:13;1.17;;;1.08;;
66429;SDS011;53242;51.694;10.006;2023-07-20T13:18:37;0.98;;;0.90;;
66429;SDS011;53242;51.694;10.006;2023-07-20T13:20:59;0.90;;;0.90;;
66429;SDS011;53242;51.694;10.006;2023-07-20T13:23:25;1.08;;;0.90;;
66429;SDS011;53242;51.694;10.006;2023-07-20T13:25:48;1.17;;;0.90;;
66429;SDS011;53242;51.694;10.006;2023-07-20T13:28:10;2.20;;;1.00;;
66429;SDS011;53242;51.694;10.006;2023-07-20T13:30:32;0.85;;;0.80;;
66429;SDS011;53242;51.694;10.006;2023-07-20T13:32:55;0.88;;;0.60;;
66429;SDS011;53242;51.694;10.006;2023-07-20T13:35:18;0.70;;;0.70;;
66429;SDS011;53242;51.694;10.006;2023-07-20T13:37:41;0.93;;;0.82;;
66429;SDS011;53242;51.694;10.006;2023-07-20T13:40:03;1.73;;;1.00;;
66429;SDS011;53242;51.694;10.006;2023-07-20T13:44:49;0.70;;;0.70;;
66429;SDS011;53242;51.694;10.006;2023-07-20T13:47:12;0.93;;;0.80;;
66429;SDS011;53242;51.694;10.006;2023-07-20T13:49:34;1.33;;;0.77;;
66429;SDS011;53242;51.694;10.006;2023-07-20T13:51:56;0.80;;;0.80;;
66429;SDS011;53242;51.694;10.006;2023-07-20T13:54:19;1.20;;;1.00;;
66429;SDS011;53242;51.694;10.006;2023-07-20T13:56:42;1.75;;;1.15;;
66429;SDS011;53242;51.694;10.006;2023-07-20T13:59:04;1.20;;;0.90;;
66429;SDS011;53242;51.694;10.006;2023-07-20T14:01:26;1.83;;;1.02;;
66429;SDS011;53242;51.694;10.006;2023-07-20T14:03:50;2.05;;;0.90;;
66429;SDS011;53242;51.694;10.006;2023-07-20T14:06:13;1.20;;;0.80;;
66429;SDS011;53242;51.694;10.006;2023-07-20T14:08:35;0.88;;;0.80;;
66429;SDS011;53242;51.694;10.006;2023-07-20T14:10:58;0.98;;;0.88;;
66429;SDS011;53242;51.694;10.006;2023-07-20T14:13:20;1.58;;;0.85;;
66429;SDS011;53242;51.694;10.006;2023-07-20T14:15:42;2.53;;;0.55;;
66429;SDS011;53242;51.694;10.006;2023-07-20T14:18:05;2.45;;;0.98;;
66429;SDS011;53242;51.694;10.006;2023-07-20T14:20:27;1.45;;;0.90;;
66429;SDS011;53242;51.694;10.006;2023-07-20T14:22:50;1.13;;;0.90;;
66429;SDS011;53242;51.694;10.006;2023-07-20T14:25:12;0.70;;;0.70;;
66429;SDS011;53242;51.694;10.006;2023-07-20T14:27:34;1.42;;;0.80;;
66429;SDS011;53242;51.694;10.006;2023-07-20T14:29:57;2.78;;;1.20;;